Ali Cat — MZCL8 — position and weather

sailwx.info

Track history (hours):
 
Tides and Currents Weather Stations Pressure Air Temp Water Temp Dewpoint Dewpoint Depression Visibility Wind Speed Wind Dir Waves Ship Positions

Ali Cat

Operator: MRCC Clyde

Last reported at 2018-Aug-17 20:52 UTC. Time now 2018-Aug-18 00:47 UTC.
Position N 55°57' W 004°52'.

Length 19 m.

Type: Passenger vessel. MMSI: 235056506.

Date/timePositionNaut miles runAvg speedWind from/ knotsBaromVisibWave heightAir tempDewpointWater temp
2018-Aug-17 20:52N 55°57' W 004°52'1 0.4
2018-Aug-17 19:35N 55°58' W 004°51'210.4
2018-Aug-17 19:22N 55°57' W 004°55'2 2.2
2018-Aug-17 18:32N 55°57' W 004°52'1 0.7
2018-Aug-17 17:30N 55°57' W 004°53'0 0.1
2018-Aug-17 13:03N 55°57' W 004°53'110.5
2018-Aug-17 13:00N 55°57' W 004°54'2 1.2
2018-Aug-17 11:40N 55°58' W 004°51'211.1
2018-Aug-17 11:30N 55°57' W 004°54'2 2.9
2018-Aug-17 10:41N 55°58' W 004°50'2 9.0
2018-Aug-17 10:27N 55°57' W 004°54'2 1.9
2018-Aug-17 09:36N 55°58' W 004°51'110.2
2018-Aug-17 09:30N 55°57' W 004°53'1 1.2
2018-Aug-17 08:37N 55°57' W 004°51'1 9.4
2018-Aug-17 08:30N 55°57' W 004°53'1 1.3
2018-Aug-17 07:36N 55°57' W 004°51'110.2
2018-Aug-17 07:30N 55°57' W 004°52'2 2.0
2018-Aug-17 06:36N 55°58' W 004°49'1 9.9
2018-Aug-17 06:30N 55°57' W 004°51'0 0.0
2018-Aug-16 20:56N 55°58' W 004°51'0 0.3
2018-Aug-16 19:34N 55°58' W 004°51'110.2
2018-Aug-16 19:28N 55°57' W 004°53'2 1.8
2018-Aug-16 18:37N 55°58' W 004°50'210.2
2018-Aug-16 18:28N 55°57' W 004°53'1 1.1
2018-Aug-16 17:32N 55°58' W 004°52'110.9
2018-Aug-16 17:29N 55°57' W 004°53'1 0.6
2018-Aug-16 16:32N 55°58' W 004°52'111.1
2018-Aug-16 16:28N 55°57' W 004°53'1 1.4
2018-Aug-16 15:34N 55°58' W 004°51'111.4
2018-Aug-16 15:30N 55°57' W 004°52'1 0.7
2018-Aug-16 14:06N 55°58' W 004°51'111.2
2018-Aug-16 13:59N 55°57' W 004°53'2 3.1
2018-Aug-16 13:26N 55°58' W 004°50'1 3.2
2018-Aug-16 12:59N 55°57' W 004°53'0 0.2
2018-Aug-16 11:32N 55°57' W 004°52'111.3
2018-Aug-16 11:29N 55°57' W 004°53'2 2.7
2018-Aug-16 10:40N 55°58' W 004°49'210.9
2018-Aug-16 10:29N 55°57' W 004°53'1 2.3
2018-Aug-16 09:58N 55°58' W 004°51'1 2.3
2018-Aug-16 09:30N 55°57' W 004°53'2 1.8
2018-Aug-16 08:38N 55°58' W 004°50'210.5
2018-Aug-16 08:28N 55°57' W 004°53'1 2.6
2018-Aug-16 08:00N 55°58' W 004°51'1 2.0
2018-Aug-16 07:29N 55°57' W 004°53'1 2.2
2018-Aug-16 06:59N 55°58' W 004°51'0 0.7
2018-Aug-16 06:29N 55°57' W 004°51'1 0.1
2018-Aug-15 20:56N 55°58' W 004°50'3 6.4
2018-Aug-15 20:30N 55°57' W 004°55'3 2.8
2018-Aug-15 19:36N 55°58' W 004°51'110.5
2018-Aug-15 19:29N 55°57' W 004°53'1 0.7
2018-Aug-15 18:33N 55°57' W 004°52'110.6
2018-Aug-15 18:29N 55°57' W 004°53'2 2.0
2018-Aug-15 17:39N 55°58' W 004°50'210.4
2018-Aug-15 17:30N 55°57' W 004°53'2 2.1
2018-Aug-15 16:40N 55°58' W 004°50'210.5
2018-Aug-15 16:29N 55°57' W 004°53'1 1.9
2018-Aug-15 16:00N 55°58' W 004°51'1 1.6
2018-Aug-15 15:30N 55°57' W 004°52'1 0.4
2018-Aug-15 14:03N 55°57' W 004°52'111.1
2018-Aug-15 13:58N 55°57' W 004°53'0 0.3
2018-Aug-15 13:00N 55°57' W 004°53'2 1.1
2018-Aug-15 11:37N 55°58' W 004°50'111.1
2018-Aug-15 11:30N 55°57' W 004°52'1 1.4
2018-Aug-15 10:59N 55°58' W 004°51'1 2.0
2018-Aug-15 10:30N 55°57' W 004°52'0 0.5
2018-Aug-15 09:34N 55°57' W 004°52'111.3
2018-Aug-15 09:30N 55°57' W 004°53'2 2.8
2018-Aug-15 08:40N 55°58' W 004°49'310.6
2018-Aug-15 08:26N 55°57' W 004°54'1 3.1
2018-Aug-15 08:00N 55°58' W 004°52'1 1.4
2018-Aug-15 07:30N 55°57' W 004°52'2 1.7
2018-Aug-15 06:35N 55°58' W 004°50'110.0
2018-Aug-15 06:27N 55°57' W 004°52'1 0.1
2018-Aug-14 20:56N 55°58' W 004°50'2 5.5
2018-Aug-14 20:30N 55°57' W 004°54'2 2.7
2018-Aug-14 19:38N 55°58' W 004°50'110.7
2018-Aug-14 19:30N 55°57' W 004°53'2 3.3
2018-Aug-14 18:51N 55°58' W 004°49'2 6.0
2018-Aug-14 18:30N 55°57' W 004°52'1 1.7
2018-Aug-14 17:59N 55°58' W 004°51'1 2.3
2018-Aug-14 17:29N 55°57' W 004°53'2 2.7
2018-Aug-14 16:41N 55°58' W 004°49'210.7
2018-Aug-14 16:30N 55°57' W 004°52'1 1.8
2018-Aug-14 16:00N 55°58' W 004°51'1 2.4
2018-Aug-14 15:29N 55°57' W 004°53'2 0.5
2018-Aug-14 11:39N 55°58' W 004°50'211.2
2018-Aug-14 11:28N 55°57' W 004°53'1 0.8
2018-Aug-14 10:31N 55°57' W 004°52'011.7
2018-Aug-14 10:30N 55°57' W 004°52'1 1.2
2018-Aug-14 09:36N 55°58' W 004°51'211.2
2018-Aug-14 09:25N 55°57' W 004°54'2 2.9
2018-Aug-14 08:38N 55°58' W 004°50'211.3
2018-Aug-14 08:28N 55°57' W 004°53'1 2.8
2018-Aug-14 07:59N 55°58' W 004°51'1 1.8
2018-Aug-14 07:30N 55°57' W 004°52'2 2.9
2018-Aug-14 06:50N 55°58' W 004°49'1 4.0
2018-Aug-14 06:30N 55°58' W 004°51'0 0.0
2018-Aug-13 20:54N 55°58' W 004°51'2 4.6
2018-Aug-13 20:30N 55°57' W 004°54'3 3.4
2018-Aug-13 19:41N 55°58' W 004°49'210.7
2018-Aug-13 19:30N 55°57' W 004°52'1 2.5
2018-Aug-13 18:56N 55°58' W 004°50'1 2.8
2018-Aug-13 18:31N 55°57' W 004°52'1 2.2
2018-Aug-13 17:55N 55°58' W 004°50'2 3.5
2018-Aug-13 17:29N 55°57' W 004°53'1 2.5
2018-Aug-13 16:56N 55°58' W 004°50'1 3.1
2018-Aug-13 16:30N 55°57' W 004°53'2 2.5
2018-Aug-13 15:41N 55°58' W 004°49'210.1
2018-Aug-13 15:29N 55°57' W 004°53'2 2.2
2018-Aug-13 14:23N 55°58' W 004°49'3 6.5
2018-Aug-13 13:59N 55°57' W 004°53'1 1.1
2018-Aug-13 13:06N 55°57' W 004°51'110.3
2018-Aug-13 12:58N 55°57' W 004°54'2 1.1
2018-Aug-13 11:35N 55°58' W 004°51'110.5
2018-Aug-13 11:28N 55°57' W 004°53'2 1.9
2018-Aug-13 10:36N 55°58' W 004°50'111.0
2018-Aug-13 10:31N 55°57' W 004°52'1 0.9
2018-Aug-13 09:36N 55°58' W 004°51'110.6
2018-Aug-13 09:29N 55°57' W 004°53'2 2.1
2018-Aug-13 08:39N 55°58' W 004°50'211.0
2018-Aug-13 08:29N 55°57' W 004°53'2 2.1
2018-Aug-13 07:38N 55°58' W 004°50'211.2
2018-Aug-13 07:30N 55°57' W 004°52'1 1.8
2018-Aug-13 06:58N 55°58' W 004°51'0 0.6
2018-Aug-13 06:30N 55°57' W 004°51'1 0.0
2018-Aug-12 17:09N 55°58' W 004°50'110.0
2018-Aug-12 17:00N 55°57' W 004°52'0 0.4
2018-Aug-12 16:04N 55°57' W 004°52'2 9.7
2018-Aug-12 15:54N 55°57' W 004°54'3 3.8
2018-Aug-12 15:10N 55°58' W 004°50'2 9.7
2018-Aug-12 14:59N 55°57' W 004°53'1 1.5
2018-Aug-12 14:08N 55°58' W 004°51'1 9.5
2018-Aug-12 14:00N 55°57' W 004°53'0 0.3
2018-Aug-12 12:57N 55°57' W 004°54'3 0.2
2018-Aug-11 21:02N 55°58' W 004°49'110.7
2018-Aug-11 20:57N 55°58' W 004°51'2 4.5
2018-Aug-11 20:30N 55°57' W 004°54'3 3.8
2018-Aug-11 19:43N 55°58' W 004°49'210.2
2018-Aug-11 19:29N 55°57' W 004°53'1 2.4
2018-Aug-11 18:59N 55°58' W 004°51'1 2.3
2018-Aug-11 18:30N 55°57' W 004°53'2 3.5
2018-Aug-11 17:54N 55°58' W 004°49'3 6.1
2018-Aug-11 17:28N 55°57' W 004°54'2 4.2
2018-Aug-11 17:00N 55°58' W 004°51'2 3.8
2018-Aug-11 16:27N 55°57' W 004°54'2 4.4
2018-Aug-11 16:00N 55°58' W 004°51'1 2.4
2018-Aug-11 15:30N 55°57' W 004°53'1 1.6
2018-Aug-11 15:00N 55°58' W 004°51'2 2.1
2018-Aug-11 14:16N 55°58' W 004°49'0 0.0
2018-Aug-11 11:42N 55°58' W 004°49'310.6
2018-Aug-11 11:26N 55°57' W 004°54'2 3.9
2018-Aug-11 11:00N 55°58' W 004°51'2 2.9
2018-Aug-11 10:29N 55°57' W 004°53'1 2.9
2018-Aug-11 09:59N 55°58' W 004°51'1 2.5
2018-Aug-11 09:30N 55°57' W 004°53'1 2.3
2018-Aug-11 09:00N 55°58' W 004°51'1 1.9
2018-Aug-11 08:30N 55°57' W 004°53'1 1.9
2018-Aug-11 08:00N 55°58' W 004°51'1 1.5
2018-Aug-11 07:30N 55°57' W 004°52'1 1.4
2018-Aug-11 07:00N 55°58' W 004°52'0 0.7
2018-Aug-11 06:29N 55°57' W 004°51'1 1.0
2018-Aug-11 05:56N 55°58' W 004°52'2 3.3
2018-Aug-11 05:22N 55°58' W 004°49'1 0.1
2018-Aug-10 20:56N 55°58' W 004°51'2 4.4
2018-Aug-10 20:29N 55°57' W 004°54'3 3.8
2018-Aug-10 19:43N 55°58' W 004°49'2 9.6
2018-Aug-10 19:29N 55°57' W 004°53'1 2.4
2018-Aug-10 18:59N 55°58' W 004°51'1 2.2
2018-Aug-10 18:30N 55°57' W 004°53'1 2.4
2018-Aug-10 18:00N 55°58' W 004°51'2 2.9
2018-Aug-10 17:26N 55°57' W 004°54'1 3.4
2018-Aug-10 17:00N 55°58' W 004°51'1 1.6
2018-Aug-10 16:31N 55°57' W 004°52'1 1.3
2018-Aug-10 16:00N 55°58' W 004°52'1 1.7
2018-Aug-10 15:29N 55°57' W 004°53'1 2.3
2018-Aug-10 14:59N 55°58' W 004°51'1 2.4
2018-Aug-10 14:28N 55°58' W 004°49'3 6.1
2018-Aug-10 13:58N 55°57' W 004°54'2 5.1
2018-Aug-10 13:30N 55°58' W 004°50'2 4.4
2018-Aug-10 12:59N 55°57' W 004°54'2 4.3
2018-Aug-10 12:30N 55°58' W 004°51'1 1.2
2018-Aug-10 11:42N 55°58' W 004°49'210.5
2018-Aug-10 11:30N 55°57' W 004°52'1 2.1
2018-Aug-10 11:00N 55°58' W 004°51'1 2.0
2018-Aug-10 10:30N 55°57' W 004°52'1 1.8
2018-Aug-10 10:00N 55°58' W 004°51'2 3.1
2018-Aug-10 09:27N 55°57' W 004°53'2 3.9
2018-Aug-10 09:00N 55°58' W 004°51'1 1.8
2018-Aug-10 08:30N 55°57' W 004°52'1 1.3
2018-Aug-10 08:00N 55°58' W 004°51'1 1.2
2018-Aug-10 07:30N 55°57' W 004°52'1 1.2
2018-Aug-10 07:00N 55°58' W 004°51'0 0.7
2018-Aug-10 06:28N 55°57' W 004°51'1 1.6
2018-Aug-10 06:00N 55°58' W 004°53'2 4.2
2018-Aug-10 05:29N 55°58' W 004°49'0 0.0
2018-Aug-09 21:03N 55°58' W 004°49'0 8.0
2018-Aug-09 21:00N 55°58' W 004°50'2 4.1
2018-Aug-09 20:28N 55°57' W 004°53'3 3.3
2018-Aug-09 19:42N 55°58' W 004°49'210.2
2018-Aug-09 19:28N 55°57' W 004°53'1 2.5
2018-Aug-09 19:00N 55°58' W 004°51'1 2.5
2018-Aug-09 18:27N 55°57' W 004°53'1 2.5
2018-Aug-09 18:00N 55°58' W 004°52'1 1.6
2018-Aug-09 17:30N 55°57' W 004°52'1 2.0
2018-Aug-09 17:00N 55°58' W 004°51'1 2.2
2018-Aug-09 16:29N 55°57' W 004°53'1 2.2
2018-Aug-09 16:00N 55°58' W 004°51'1 1.9
2018-Aug-09 15:30N 55°57' W 004°53'1 1.7
2018-Aug-09 15:00N 55°58' W 004°52'2 0.5
2018-Aug-09 11:48N 55°58' W 004°49'2 7.3
2018-Aug-09 11:28N 55°57' W 004°53'1 2.8
2018-Aug-09 10:59N 55°58' W 004°51'1 2.1
2018-Aug-09 10:30N 55°57' W 004°52'1 2.0
2018-Aug-09 09:59N 55°58' W 004°51'1 2.2
2018-Aug-09 09:29N 55°57' W 004°53'1 1.8
2018-Aug-09 09:00N 55°58' W 004°51'1 1.9
2018-Aug-09 08:31N 55°57' W 004°53'1 2.5
2018-Aug-09 08:00N 55°58' W 004°51'1 2.3
2018-Aug-09 07:30N 55°57' W 004°52'1 1.6
2018-Aug-09 07:00N 55°58' W 004°51'0 0.9
2018-Aug-09 06:28N 55°57' W 004°51'1 1.5
2018-Aug-09 05:59N 55°58' W 004°53'2 4.1
2018-Aug-09 05:27N 55°58' W 004°49'3 0.3
2018-Aug-08 20:47N 55°57' W 004°53'0 1.8
2018-Aug-08 20:30N 55°57' W 004°54'3 3.9
2018-Aug-08 19:43N 55°58' W 004°49'2 9.6
2018-Aug-08 19:28N 55°57' W 004°53'1 2.9
2018-Aug-08 18:59N 55°58' W 004°51'1 2.3
2018-Aug-08 18:30N 55°57' W 004°53'1 1.8
2018-Aug-08 18:00N 55°58' W 004°51'1 2.2
2018-Aug-08 17:29N 55°57' W 004°53'1 1.2
2018-Aug-08 16:34N 55°58' W 004°51'111.3
2018-Aug-08 16:29N 55°57' W 004°53'1 2.3
2018-Aug-08 16:00N 55°58' W 004°51'1 2.2
2018-Aug-08 15:29N 55°57' W 004°53'2 3.0
2018-Aug-08 14:56N 55°58' W 004°50'1 1.6
2018-Aug-08 14:25N 55°58' W 004°49'3 6.5
2018-Aug-08 13:59N 55°57' W 004°53'2 3.7
2018-Aug-08 13:29N 55°58' W 004°50'2 3.7
2018-Aug-08 12:58N 55°57' W 004°54'3 2.2
2018-Aug-08 11:44N 55°58' W 004°49'2 9.7
2018-Aug-08 11:29N 55°57' W 004°53'1 3.0
2018-Aug-08 10:59N 55°58' W 004°51'1 2.6
2018-Aug-08 10:30N 55°57' W 004°53'1 2.0
2018-Aug-08 09:59N 55°58' W 004°51'1 2.4
2018-Aug-08 09:29N 55°57' W 004°53'1 2.6
2018-Aug-08 09:00N 55°58' W 004°51'1 2.6
2018-Aug-08 08:28N 55°57' W 004°53'1 2.6
2018-Aug-08 08:00N 55°58' W 004°51'1 2.0
2018-Aug-08 07:28N 55°57' W 004°53'1 2.1
2018-Aug-08 07:00N 55°58' W 004°51'0 0.7
2018-Aug-08 06:30N 55°58' W 004°51'1 2.2
2018-Aug-08 06:00N 55°58' W 004°53'2 0.3
2018-Aug-07 21:06N 55°58' W 004°49'0 3.8
2018-Aug-07 20:59N 55°58' W 004°50'  
Track history (hours):
 
Tides and Currents Weather Stations Pressure Air Temp Water Temp Dewpoint Dewpoint Depression Visibility Wind Speed Wind Dir Waves Ship Positions

Ali Cat

Operator: MRCC Clyde

Last reported at 2018-Aug-17 20:52 UTC. Time now 2018-Aug-18 00:47 UTC.
Position N 55°57' W 004°52'.

Length 19 m.

Type: Passenger vessel. MMSI: 235056506.

Date/timePositionNaut miles runAvg speedWind from/ knotsBaromVisibWave heightAir tempDewpointWater temp
2018-Aug-17 20:52N 55°57' W 004°52'1 0.4
2018-Aug-17 19:35N 55°58' W 004°51'210.4
2018-Aug-17 19:22N 55°57' W 004°55'2 2.2
2018-Aug-17 18:32N 55°57' W 004°52'1 0.7
2018-Aug-17 17:30N 55°57' W 004°53'0 0.1
2018-Aug-17 13:03N 55°57' W 004°53'110.5
2018-Aug-17 13:00N 55°57' W 004°54'2 1.2
2018-Aug-17 11:40N 55°58' W 004°51'211.1
2018-Aug-17 11:30N 55°57' W 004°54'2 2.9
2018-Aug-17 10:41N 55°58' W 004°50'2 9.0
2018-Aug-17 10:27N 55°57' W 004°54'2 1.9
2018-Aug-17 09:36N 55°58' W 004°51'110.2
2018-Aug-17 09:30N 55°57' W 004°53'1 1.2
2018-Aug-17 08:37N 55°57' W 004°51'1 9.4
2018-Aug-17 08:30N 55°57' W 004°53'1 1.3
2018-Aug-17 07:36N 55°57' W 004°51'110.2
2018-Aug-17 07:30N 55°57' W 004°52'2 2.0
2018-Aug-17 06:36N 55°58' W 004°49'1 9.9
2018-Aug-17 06:30N 55°57' W 004°51'0 0.0
2018-Aug-16 20:56N 55°58' W 004°51'0 0.3
2018-Aug-16 19:34N 55°58' W 004°51'110.2
2018-Aug-16 19:28N 55°57' W 004°53'2 1.8
2018-Aug-16 18:37N 55°58' W 004°50'210.2
2018-Aug-16 18:28N 55°57' W 004°53'1 1.1
2018-Aug-16 17:32N 55°58' W 004°52'110.9
2018-Aug-16 17:29N 55°57' W 004°53'1 0.6
2018-Aug-16 16:32N 55°58' W 004°52'111.1
2018-Aug-16 16:28N 55°57' W 004°53'1 1.4
2018-Aug-16 15:34N 55°58' W 004°51'111.4
2018-Aug-16 15:30N 55°57' W 004°52'1 0.7
2018-Aug-16 14:06N 55°58' W 004°51'111.2
2018-Aug-16 13:59N 55°57' W 004°53'2 3.1
2018-Aug-16 13:26N 55°58' W 004°50'1 3.2
2018-Aug-16 12:59N 55°57' W 004°53'0 0.2
2018-Aug-16 11:32N 55°57' W 004°52'111.3
2018-Aug-16 11:29N 55°57' W 004°53'2 2.7
2018-Aug-16 10:40N 55°58' W 004°49'210.9
2018-Aug-16 10:29N 55°57' W 004°53'1 2.3
2018-Aug-16 09:58N 55°58' W 004°51'1 2.3
2018-Aug-16 09:30N 55°57' W 004°53'2 1.8
2018-Aug-16 08:38N 55°58' W 004°50'210.5
2018-Aug-16 08:28N 55°57' W 004°53'1 2.6
2018-Aug-16 08:00N 55°58' W 004°51'1 2.0
2018-Aug-16 07:29N 55°57' W 004°53'1 2.2
2018-Aug-16 06:59N 55°58' W 004°51'0 0.7
2018-Aug-16 06:29N 55°57' W 004°51'1 0.1
2018-Aug-15 20:56N 55°58' W 004°50'3 6.4
2018-Aug-15 20:30N 55°57' W 004°55'3 2.8
2018-Aug-15 19:36N 55°58' W 004°51'110.5
2018-Aug-15 19:29N 55°57' W 004°53'1 0.7
2018-Aug-15 18:33N 55°57' W 004°52'110.6
2018-Aug-15 18:29N 55°57' W 004°53'2 2.0
2018-Aug-15 17:39N 55°58' W 004°50'210.4
2018-Aug-15 17:30N 55°57' W 004°53'2 2.1
2018-Aug-15 16:40N 55°58' W 004°50'210.5
2018-Aug-15 16:29N 55°57' W 004°53'1 1.9
2018-Aug-15 16:00N 55°58' W 004°51'1 1.6
2018-Aug-15 15:30N 55°57' W 004°52'1 0.4
2018-Aug-15 14:03N 55°57' W 004°52'111.1
2018-Aug-15 13:58N 55°57' W 004°53'0 0.3
2018-Aug-15 13:00N 55°57' W 004°53'2 1.1
2018-Aug-15 11:37N 55°58' W 004°50'111.1
2018-Aug-15 11:30N 55°57' W 004°52'1 1.4
2018-Aug-15 10:59N 55°58' W 004°51'1 2.0
2018-Aug-15 10:30N 55°57' W 004°52'0 0.5
2018-Aug-15 09:34N 55°57' W 004°52'111.3
2018-Aug-15 09:30N 55°57' W 004°53'2 2.8
2018-Aug-15 08:40N 55°58' W 004°49'310.6
2018-Aug-15 08:26N 55°57' W 004°54'1 3.1
2018-Aug-15 08:00N 55°58' W 004°52'1 1.4
2018-Aug-15 07:30N 55°57' W 004°52'2 1.7
2018-Aug-15 06:35N 55°58' W 004°50'110.0
2018-Aug-15 06:27N 55°57' W 004°52'1 0.1
2018-Aug-14 20:56N 55°58' W 004°50'2 5.5
2018-Aug-14 20:30N 55°57' W 004°54'2 2.7
2018-Aug-14 19:38N 55°58' W 004°50'110.7
2018-Aug-14 19:30N 55°57' W 004°53'2 3.3
2018-Aug-14 18:51N 55°58' W 004°49'2 6.0
2018-Aug-14 18:30N 55°57' W 004°52'1 1.7
2018-Aug-14 17:59N 55°58' W 004°51'1 2.3
2018-Aug-14 17:29N 55°57' W 004°53'2 2.7
2018-Aug-14 16:41N 55°58' W 004°49'210.7
2018-Aug-14 16:30N 55°57' W 004°52'1 1.8
2018-Aug-14 16:00N 55°58' W 004°51'1 2.4
2018-Aug-14 15:29N 55°57' W 004°53'2 0.5
2018-Aug-14 11:39N 55°58' W 004°50'211.2
2018-Aug-14 11:28N 55°57' W 004°53'1 0.8
2018-Aug-14 10:31N 55°57' W 004°52'011.7
2018-Aug-14 10:30N 55°57' W 004°52'1 1.2
2018-Aug-14 09:36N 55°58' W 004°51'211.2
2018-Aug-14 09:25N 55°57' W 004°54'2 2.9
2018-Aug-14 08:38N 55°58' W 004°50'211.3
2018-Aug-14 08:28N 55°57' W 004°53'1 2.8
2018-Aug-14 07:59N 55°58' W 004°51'1 1.8
2018-Aug-14 07:30N 55°57' W 004°52'2 2.9
2018-Aug-14 06:50N 55°58' W 004°49'1 4.0
2018-Aug-14 06:30N 55°58' W 004°51'0 0.0
2018-Aug-13 20:54N 55°58' W 004°51'2 4.6
2018-Aug-13 20:30N 55°57' W 004°54'3 3.4
2018-Aug-13 19:41N 55°58' W 004°49'210.7
2018-Aug-13 19:30N 55°57' W 004°52'1 2.5
2018-Aug-13 18:56N 55°58' W 004°50'1 2.8
2018-Aug-13 18:31N 55°57' W 004°52'1 2.2
2018-Aug-13 17:55N 55°58' W 004°50'2 3.5
2018-Aug-13 17:29N 55°57' W 004°53'1 2.5
2018-Aug-13 16:56N 55°58' W 004°50'1 3.1
2018-Aug-13 16:30N 55°57' W 004°53'2 2.5
2018-Aug-13 15:41N 55°58' W 004°49'210.1
2018-Aug-13 15:29N 55°57' W 004°53'2 2.2
2018-Aug-13 14:23N 55°58' W 004°49'3 6.5
2018-Aug-13 13:59N 55°57' W 004°53'1 1.1
2018-Aug-13 13:06N 55°57' W 004°51'110.3
2018-Aug-13 12:58N 55°57' W 004°54'2 1.1
2018-Aug-13 11:35N 55°58' W 004°51'110.5
2018-Aug-13 11:28N 55°57' W 004°53'2 1.9
2018-Aug-13 10:36N 55°58' W 004°50'111.0
2018-Aug-13 10:31N 55°57' W 004°52'1 0.9
2018-Aug-13 09:36N 55°58' W 004°51'110.6
2018-Aug-13 09:29N 55°57' W 004°53'2 2.1
2018-Aug-13 08:39N 55°58' W 004°50'211.0
2018-Aug-13 08:29N 55°57' W 004°53'2 2.1
2018-Aug-13 07:38N 55°58' W 004°50'211.2
2018-Aug-13 07:30N 55°57' W 004°52'1 1.8
2018-Aug-13 06:58N 55°58' W 004°51'0 0.6
2018-Aug-13 06:30N 55°57' W 004°51'1 0.0
2018-Aug-12 17:09N 55°58' W 004°50'110.0
2018-Aug-12 17:00N 55°57' W 004°52'0 0.4
2018-Aug-12 16:04N 55°57' W 004°52'2 9.7
2018-Aug-12 15:54N 55°57' W 004°54'3 3.8
2018-Aug-12 15:10N 55°58' W 004°50'2 9.7
2018-Aug-12 14:59N 55°57' W 004°53'1 1.5
2018-Aug-12 14:08N 55°58' W 004°51'1 9.5
2018-Aug-12 14:00N 55°57' W 004°53'0 0.3
2018-Aug-12 12:57N 55°57' W 004°54'3 0.2
2018-Aug-11 21:02N 55°58' W 004°49'110.7
2018-Aug-11 20:57N 55°58' W 004°51'2 4.5
2018-Aug-11 20:30N 55°57' W 004°54'3 3.8
2018-Aug-11 19:43N 55°58' W 004°49'210.2
2018-Aug-11 19:29N 55°57' W 004°53'1 2.4
2018-Aug-11 18:59N 55°58' W 004°51'1 2.3
2018-Aug-11 18:30N 55°57' W 004°53'2 3.5
2018-Aug-11 17:54N 55°58' W 004°49'3 6.1
2018-Aug-11 17:28N 55°57' W 004°54'2 4.2
2018-Aug-11 17:00N 55°58' W 004°51'2 3.8
2018-Aug-11 16:27N 55°57' W 004°54'2 4.4
2018-Aug-11 16:00N 55°58' W 004°51'1 2.4
2018-Aug-11 15:30N 55°57' W 004°53'1 1.6
2018-Aug-11 15:00N 55°58' W 004°51'2 2.1
2018-Aug-11 14:16N 55°58' W 004°49'0 0.0
2018-Aug-11 11:42N 55°58' W 004°49'310.6
2018-Aug-11 11:26N 55°57' W 004°54'2 3.9
2018-Aug-11 11:00N 55°58' W 004°51'2 2.9
2018-Aug-11 10:29N 55°57' W 004°53'1 2.9
2018-Aug-11 09:59N 55°58' W 004°51'1 2.5
2018-Aug-11 09:30N 55°57' W 004°53'1 2.3
2018-Aug-11 09:00N 55°58' W 004°51'1 1.9
2018-Aug-11 08:30N 55°57' W 004°53'1 1.9
2018-Aug-11 08:00N 55°58' W 004°51'1 1.5
2018-Aug-11 07:30N 55°57' W 004°52'1 1.4
2018-Aug-11 07:00N 55°58' W 004°52'0 0.7
2018-Aug-11 06:29N 55°57' W 004°51'1 1.0
2018-Aug-11 05:56N 55°58' W 004°52'2 3.3
2018-Aug-11 05:22N 55°58' W 004°49'1 0.1
2018-Aug-10 20:56N 55°58' W 004°51'2 4.4
2018-Aug-10 20:29N 55°57' W 004°54'3 3.8
2018-Aug-10 19:43N 55°58' W 004°49'2 9.6
2018-Aug-10 19:29N 55°57' W 004°53'1 2.4
2018-Aug-10 18:59N 55°58' W 004°51'1 2.2
2018-Aug-10 18:30N 55°57' W 004°53'1 2.4
2018-Aug-10 18:00N 55°58' W 004°51'2 2.9
2018-Aug-10 17:26N 55°57' W 004°54'1 3.4
2018-Aug-10 17:00N 55°58' W 004°51'1 1.6
2018-Aug-10 16:31N 55°57' W 004°52'1 1.3
2018-Aug-10 16:00N 55°58' W 004°52'1 1.7
2018-Aug-10 15:29N 55°57' W 004°53'1 2.3
2018-Aug-10 14:59N 55°58' W 004°51'1 2.4
2018-Aug-10 14:28N 55°58' W 004°49'3 6.1
2018-Aug-10 13:58N 55°57' W 004°54'2 5.1
2018-Aug-10 13:30N 55°58' W 004°50'2 4.4
2018-Aug-10 12:59N 55°57' W 004°54'2 4.3
2018-Aug-10 12:30N 55°58' W 004°51'1 1.2
2018-Aug-10 11:42N 55°58' W 004°49'210.5
2018-Aug-10 11:30N 55°57' W 004°52'1 2.1
2018-Aug-10 11:00N 55°58' W 004°51'1 2.0
2018-Aug-10 10:30N 55°57' W 004°52'1 1.8
2018-Aug-10 10:00N 55°58' W 004°51'2 3.1
2018-Aug-10 09:27N 55°57' W 004°53'2 3.9
2018-Aug-10 09:00N 55°58' W 004°51'1 1.8
2018-Aug-10 08:30N 55°57' W 004°52'1 1.3
2018-Aug-10 08:00N 55°58' W 004°51'1 1.2
2018-Aug-10 07:30N 55°57' W 004°52'1 1.2
2018-Aug-10 07:00N 55°58' W 004°51'0 0.7
2018-Aug-10 06:28N 55°57' W 004°51'1 1.6
2018-Aug-10 06:00N 55°58' W 004°53'2 4.2
2018-Aug-10 05:29N 55°58' W 004°49'0 0.0
2018-Aug-09 21:03N 55°58' W 004°49'0 8.0
2018-Aug-09 21:00N 55°58' W 004°50'2 4.1
2018-Aug-09 20:28N 55°57' W 004°53'3 3.3
2018-Aug-09 19:42N 55°58' W 004°49'210.2
2018-Aug-09 19:28N 55°57' W 004°53'1 2.5
2018-Aug-09 19:00N 55°58' W 004°51'1 2.5
2018-Aug-09 18:27N 55°57' W 004°53'1 2.5
2018-Aug-09 18:00N 55°58' W 004°52'1 1.6
2018-Aug-09 17:30N 55°57' W 004°52'1 2.0
2018-Aug-09 17:00N 55°58' W 004°51'1 2.2
2018-Aug-09 16:29N 55°57' W 004°53'1 2.2
2018-Aug-09 16:00N 55°58' W 004°51'1 1.9
2018-Aug-09 15:30N 55°57' W 004°53'1 1.7
2018-Aug-09 15:00N 55°58' W 004°52'2 0.5
2018-Aug-09 11:48N 55°58' W 004°49'2 7.3
2018-Aug-09 11:28N 55°57' W 004°53'1 2.8
2018-Aug-09 10:59N 55°58' W 004°51'1 2.1
2018-Aug-09 10:30N 55°57' W 004°52'1 2.0
2018-Aug-09 09:59N 55°58' W 004°51'1 2.2
2018-Aug-09 09:29N 55°57' W 004°53'1 1.8
2018-Aug-09 09:00N 55°58' W 004°51'1 1.9
2018-Aug-09 08:31N 55°57' W 004°53'1 2.5
2018-Aug-09 08:00N 55°58' W 004°51'1 2.3
2018-Aug-09 07:30N 55°57' W 004°52'1 1.6
2018-Aug-09 07:00N 55°58' W 004°51'0 0.9
2018-Aug-09 06:28N 55°57' W 004°51'1 1.5
2018-Aug-09 05:59N 55°58' W 004°53'2 4.1
2018-Aug-09 05:27N 55°58' W 004°49'3 0.3
2018-Aug-08 20:47N 55°57' W 004°53'0 1.8
2018-Aug-08 20:30N 55°57' W 004°54'3 3.9
2018-Aug-08 19:43N 55°58' W 004°49'2 9.6
2018-Aug-08 19:28N 55°57' W 004°53'1 2.9
2018-Aug-08 18:59N 55°58' W 004°51'1 2.3
2018-Aug-08 18:30N 55°57' W 004°53'1 1.8
2018-Aug-08 18:00N 55°58' W 004°51'1 2.2
2018-Aug-08 17:29N 55°57' W 004°53'1 1.2
2018-Aug-08 16:34N 55°58' W 004°51'111.3
2018-Aug-08 16:29N 55°57' W 004°53'1 2.3
2018-Aug-08 16:00N 55°58' W 004°51'1 2.2
2018-Aug-08 15:29N 55°57' W 004°53'2 3.0
2018-Aug-08 14:56N 55°58' W 004°50'1 1.6
2018-Aug-08 14:25N 55°58' W 004°49'3 6.5
2018-Aug-08 13:59N 55°57' W 004°53'2 3.7
2018-Aug-08 13:29N 55°58' W 004°50'2 3.7
2018-Aug-08 12:58N 55°57' W 004°54'3 2.2
2018-Aug-08 11:44N 55°58' W 004°49'2 9.7
2018-Aug-08 11:29N 55°57' W 004°53'1 3.0
2018-Aug-08 10:59N 55°58' W 004°51'1 2.6
2018-Aug-08 10:30N 55°57' W 004°53'1 2.0
2018-Aug-08 09:59N 55°58' W 004°51'1 2.4
2018-Aug-08 09:29N 55°57' W 004°53'1 2.6
2018-Aug-08 09:00N 55°58' W 004°51'1 2.6
2018-Aug-08 08:28N 55°57' W 004°53'1 2.6
2018-Aug-08 08:00N 55°58' W 004°51'1 2.0
2018-Aug-08 07:28N 55°57' W 004°53'1 2.1
2018-Aug-08 07:00N 55°58' W 004°51'0 0.7
2018-Aug-08 06:30N 55°58' W 004°51'1 2.2
2018-Aug-08 06:00N 55°58' W 004°53'2 0.3
2018-Aug-07 21:06N 55°58' W 004°49'0 3.8
2018-Aug-07 20:59N 55°58' W 004°50'  

Dump ship's entire track history